Time;durP1;ratioP1;P1;durP2;ratioP2;P2;SDS_P1;SDS_P2;PMS_P1;PMS_P2;Temp;Humidity;BMP_temperature;BMP_pressure;BME280_temperature;BME280_humidity;BME280_pressure;Samples;Min_cycle;Max_cycle;Signal;HPM_P1;HPM_P2
2021/07/06 00:01:53;;;;;;;7.35;5.18;;;19.40;96.30;;;;;;5042145;28;20022;-91
2021/07/06 00:04:19;;;;;;;7.25;5.50;;;19.40;96.40;;;;;;5042202;28;20034;-90
2021/07/06 00:06:45;;;;;;;9.15;5.20;;;19.40;96.60;;;;;;5001169;28;20550;-91
2021/07/06 00:09:10;;;;;;;6.68;5.03;;;19.40;96.80;;;;;;5041872;28;20479;-90
2021/07/06 00:11:36;;;;;;;8.07;5.30;;;19.30;97.00;;;;;;5056346;28;20033;-91
2021/07/06 00:14:02;;;;;;;9.85;5.45;;;19.30;97.20;;;;;;4999852;28;20039;-90
2021/07/06 00:16:28;;;;;;;5.53;4.70;;;19.30;97.60;;;;;;4979082;28;20018;-90
2021/07/06 00:18:56;;;;;;;9.95;5.57;;;19.20;97.60;;;;;;4955340;28;20034;-91
2021/07/06 00:21:22;;;;;;;8.52;4.90;;;19.20;97.80;;;;;;4948629;28;20555;-90
2021/07/06 00:23:47;;;;;;;6.22;4.47;;;19.20;98.00;;;;;;5034153;28;20109;-90
2021/07/06 00:26:13;;;;;;;8.48;3.80;;;19.20;98.10;;;;;;4966651;28;20121;-91
2021/07/06 00:28:38;;;;;;;6.60;3.70;;;19.10;98.00;;;;;;4990330;28;20061;-91
2021/07/06 00:31:04;;;;;;;5.35;3.20;;;19.10;98.40;;;;;;4960014;28;20041;-91
2021/07/06 00:33:30;;;;;;;5.78;3.42;;;19.10;98.10;;;;;;4948155;28;20520;-91
2021/07/06 00:36:01;;;;;;;5.43;2.55;;;19.10;98.10;;;;;;4941529;28;20415;-91
2021/07/06 00:38:27;;;;;;;4.18;2.00;;;19.10;98.10;;;;;;4975345;28;20432;-90
2021/07/06 00:40:54;;;;;;;3.42;2.30;;;19.10;98.10;;;;;;4973862;28;20026;-90
2021/07/06 00:43:20;;;;;;;2.90;2.28;;;19.20;98.20;;;;;;4958014;28;20066;-91
2021/07/06 00:45:47;;;;;;;4.20;2.22;;;19.20;98.10;;;;;;4973803;28;20022;-90
2021/07/06 00:48:12;;;;;;;3.47;2.10;;;19.20;98.10;;;;;;4973820;28;20038;-91
2021/07/06 00:50:38;;;;;;;4.50;2.30;;;19.20;98.10;;;;;;4979201;28;20023;-90
2021/07/06 00:53:04;;;;;;;3.60;2.10;;;19.20;98.10;;;;;;4960273;28;20023;-91
2021/07/06 00:55:30;;;;;;;2.25;1.90;;;19.30;98.20;;;;;;4957709;28;20034;-91
2021/07/06 00:57:56;;;;;;;2.95;1.83;;;19.20;98.20;;;;;;4973659;28;20033;-91
2021/07/06 01:00:24;;;;;;;4.70;2.03;;;19.30;98.20;;;;;;4973780;28;20388;-90
2021/07/06 01:02:51;;;;;;;3.72;2.38;;;19.20;98.10;;;;;;4979312;28;20027;-91
2021/07/06 01:05:20;;;;;;;3.45;1.95;;;19.20;98.20;;;;;;4973808;28;20141;-91
2021/07/06 01:07:46;;;;;;;2.83;1.98;;;19.20;98.20;;;;;;4990097;28;20030;-91
2021/07/06 01:10:14;;;;;;;3.67;1.98;;;19.20;98.30;;;;;;4956284;28;20054;-91
2021/07/06 01:12:42;;;;;;;4.90;2.08;;;19.20;98.30;;;;;;4945777;28;20082;-90
2021/07/06 01:15:11;;;;;;;4.00;1.95;;;19.20;98.30;;;;;;5056828;28;20447;-90
2021/07/06 01:17:40;;;;;;;2.00;1.80;;;19.20;98.30;;;;;;5058003;28;20539;-90
2021/07/06 01:20:16;;;;;;;3.50;2.15;;;19.20;98.40;;;;;;5079974;28;20428;-92
2021/07/06 01:22:43;;;;;;;2.80;1.92;;;19.20;98.40;;;;;;5075287;28;20012;-89
2021/07/06 01:25:10;;;;;;;2.40;2.05;;;19.20;98.50;;;;;;5075270;28;20024;-90
2021/07/06 01:27:38;;;;;;;3.08;2.15;;;19.20;98.50;;;;;;5060917;28;20485;-90
2021/07/06 01:30:06;;;;;;;3.75;2.00;;;19.20;98.50;;;;;;5082360;28;20024;-89
2021/07/06 01:32:32;;;;;;;3.95;2.00;;;19.20;98.60;;;;;;5077787;28;20047;-91
2021/07/06 01:34:58;;;;;;;5.05;1.80;;;19.20;98.70;;;;;;5075446;28;20032;-90
2021/07/06 01:37:23;;;;;;;3.47;1.88;;;19.20;98.70;;;;;;5074891;28;20020;-91
2021/07/06 01:39:49;;;;;;;2.58;1.85;;;19.20;98.70;;;;;;5084755;28;20031;-90
2021/07/06 01:42:17;;;;;;;3.42;1.90;;;19.20;98.70;;;;;;5074657;28;20028;-90
2021/07/06 01:44:42;;;;;;;3.28;2.00;;;19.20;98.70;;;;;;5078218;28;20137;-89
2021/07/06 01:47:08;;;;;;;5.18;1.50;;;19.20;98.70;;;;;;5083911;28;20063;-90
2021/07/06 01:49:37;;;;;;;4.53;1.63;;;19.20;98.50;;;;;;5058462;28;20124;-89
2021/07/06 01:52:02;;;;;;;3.08;1.60;;;19.10;98.50;;;;;;5041286;28;20107;-91
2021/07/06 01:54:28;;;;;;;1.50;1.17;;;19.10;98.50;;;;;;5053033;28;20051;-90
2021/07/06 01:56:54;;;;;;;2.30;1.13;;;19.00;98.80;;;;;;5065108;28;20020;-90
2021/07/06 01:59:21;;;;;;;2.65;1.27;;;19.00;98.60;;;;;;5089850;28;20050;-90
2021/07/06 02:01:47;;;;;;;1.20;1.00;;;19.00;98.70;;;;;;5090297;28;20384;-90
2021/07/06 02:04:16;;;;;;;1.90;1.20;;;19.00;98.70;;;;;;5096577;28;20032;-88
2021/07/06 02:06:43;;;;;;;2.65;1.08;;;19.00;98.80;;;;;;5066407;28;20028;-89
2021/07/06 02:09:23;;;;;;;2.05;1.20;;;19.00;98.80;;;;;;5067044;28;20077;-91
2021/07/06 02:11:49;;;;;;;1.75;1.05;;;19.00;98.80;;;;;;5081429;28;20020;-89
2021/07/06 02:14:16;;;;;;;2.53;1.17;;;19.00;98.80;;;;;;5069886;28;20074;-89
2021/07/06 02:16:42;;;;;;;2.65;1.20;;;19.00;98.90;;;;;;5083665;28;20040;-88
2021/07/06 02:19:08;;;;;;;1.60;1.17;;;19.00;98.90;;;;;;5092966;28;20024;-91
2021/07/06 02:21:33;;;;;;;2.22;1.40;;;19.00;99.00;;;;;;5084515;28;20027;-89
2021/07/06 02:23:59;;;;;;;1.65;1.20;;;19.00;99.00;;;;;;5074829;28;20377;-90
2021/07/06 02:26:25;;;;;;;1.67;1.40;;;19.00;99.10;;;;;;5079618;28;20066;-89
2021/07/06 02:28:50;;;;;;;1.48;1.30;;;19.00;99.10;;;;;;5076245;28;20027;-89
2021/07/06 02:31:16;;;;;;;2.45;1.50;;;19.00;99.00;;;;;;5043415;28;20034;-89
2021/07/06 02:33:42;;;;;;;1.90;1.38;;;19.00;99.00;;;;;;5074910;28;20025;-89
2021/07/06 02:36:08;;;;;;;4.20;1.67;;;19.00;99.00;;;;;;5058616;28;20548;-88
2021/07/06 02:38:41;;;;;;;1.55;1.30;;;19.00;99.10;;;;;;5088572;28;20028;-89
2021/07/06 02:41:07;;;;;;;1.52;1.35;;;19.00;99.20;;;;;;5087705;28;20473;-90
2021/07/06 02:43:32;;;;;;;2.35;1.50;;;19.00;99.20;;;;;;5092091;28;20032;-89
2021/07/06 02:45:59;;;;;;;2.47;1.60;;;19.00;99.30;;;;;;5091867;28;20027;-90
2021/07/06 02:48:24;;;;;;;2.72;2.15;;;19.00;99.30;;;;;;5099360;28;20024;-89
2021/07/06 02:50:50;;;;;;;2.00;1.70;;;19.00;99.30;;;;;;5083246;28;20090;-90
2021/07/06 02:53:16;;;;;;;2.58;1.65;;;18.90;99.30;;;;;;5105099;28;20080;-90
2021/07/06 02:55:42;;;;;;;3.58;1.67;;;18.90;99.40;;;;;;5077105;28;20028;-89
2021/07/06 02:58:09;;;;;;;1.58;1.40;;;18.90;99.40;;;;;;5077498;28;20055;-89
2021/07/06 03:00:36;;;;;;;2.40;1.40;;;18.90;99.40;;;;;;5069329;28;20039;-90
2021/07/06 03:03:05;;;;;;;2.35;1.30;;;18.90;99.40;;;;;;5073296;28;20024;-90
2021/07/06 03:05:32;;;;;;;1.98;1.20;;;18.90;99.40;;;;;;5088737;28;20040;-90
2021/07/06 03:07:59;;;;;;;1.73;1.17;;;18.90;99.40;;;;;;5035577;28;20024;-90
2021/07/06 03:10:30;;;;;;;1.50;1.25;;;18.80;99.40;;;;;;5094613;28;20069;-90
2021/07/06 03:12:57;;;;;;;1.70;1.27;;;18.80;99.40;;;;;;5095519;28;20031;-91
2021/07/06 03:15:26;;;;;;;3.38;1.33;;;18.80;99.40;;;;;;5090277;28;20123;-89
2021/07/06 03:17:52;;;;;;;2.08;1.10;;;18.80;99.50;;;;;;5088173;28;20027;-90
2021/07/06 03:20:20;;;;;;;2.95;1.40;;;18.80;99.50;;;;;;5094794;28;20377;-89
2021/07/06 03:22:46;;;;;;;1.52;1.30;;;18.80;99.60;;;;;;5084846;28;20036;-89
2021/07/06 03:25:14;;;;;;;1.42;1.20;;;18.70;99.60;;;;;;5077293;28;20084;-89
2021/07/06 03:27:40;;;;;;;1.30;1.20;;;18.70;99.60;;;;;;5085768;28;20442;-91
2021/07/06 03:30:09;;;;;;;3.47;1.95;;;18.70;99.60;;;;;;5078382;28;20038;-89
2021/07/06 03:32:34;;;;;;;2.50;1.40;;;18.70;99.60;;;;;;5086615;28;20024;-90
2021/07/06 03:35:01;;;;;;;4.22;1.50;;;18.70;99.60;;;;;;5090598;28;20433;-89
2021/07/06 03:37:27;;;;;;;4.03;1.25;;;18.70;99.60;;;;;;5068528;28;20104;-91
2021/07/06 03:39:53;;;;;;;1.75;1.35;;;18.70;99.60;;;;;;5072147;28;20099;-90
2021/07/06 03:42:19;;;;;;;2.47;1.58;;;18.70;99.60;;;;;;5077128;28;20040;-90
2021/07/06 03:44:47;;;;;;;2.50;1.60;;;18.70;99.50;;;;;;5057100;28;20116;-89
2021/07/06 03:47:13;;;;;;;2.40;1.50;;;18.70;99.60;;;;;;5060004;28;20393;-90
2021/07/06 03:49:39;;;;;;;2.53;1.80;;;18.70;99.50;;;;;;5077706;28;20024;-90
2021/07/06 03:52:05;;;;;;;2.30;1.30;;;18.70;99.60;;;;;;5057035;28;20082;-89
2021/07/06 03:54:31;;;;;;;3.38;1.50;;;18.70;99.60;;;;;;5050794;28;20100;-89
2021/07/06 03:56:57;;;;;;;2.33;1.58;;;18.70;99.60;;;;;;5060639;28;20021;-90
2021/07/06 03:59:22;;;;;;;2.03;1.50;;;18.70;99.60;;;;;;5086642;28;20033;-90
2021/07/06 04:01:49;;;;;;;2.78;1.60;;;18.70;99.70;;;;;;5086419;28;20482;-90
2021/07/06 04:04:15;;;;;;;1.65;1.40;;;18.70;99.70;;;;;;5072083;28;20048;-89
2021/07/06 04:06:41;;;;;;;2.25;1.55;;;18.70;99.70;;;;;;5061704;28;20028;-89
2021/07/06 04:09:06;;;;;;;5.38;1.52;;;18.70;99.70;;;;;;5057704;28;20043;-90
2021/07/06 04:11:32;;;;;;;5.07;1.67;;;18.70;99.70;;;;;;5048782;28;20024;-89
2021/07/06 04:13:58;;;;;;;2.95;1.70;;;18.70;99.70;;;;;;5068280;23;20519;-89
2021/07/06 04:16:23;;;;;;;2.97;1.92;;;18.70;99.70;;;;;;5060069;28;20540;-89
2021/07/06 04:18:49;;;;;;;4.93;1.50;;;18.70;99.70;;;;;;5068820;28;20020;-88
2021/07/06 04:21:15;;;;;;;3.75;1.63;;;18.70;99.70;;;;;;5057970;28;20546;-89
2021/07/06 04:23:41;;;;;;;2.13;1.52;;;18.70;99.70;;;;;;5065775;28;20028;-88
2021/07/06 04:26:07;;;;;;;4.07;1.40;;;18.70;99.70;;;;;;5056998;28;20037;-89
2021/07/06 04:28:34;;;;;;;2.30;1.60;;;18.70;99.70;;;;;;5093551;28;20107;-87
2021/07/06 04:31:00;;;;;;;1.75;1.40;;;18.80;99.70;;;;;;5077249;28;20028;-88
2021/07/06 04:33:26;;;;;;;2.97;1.35;;;18.80;99.70;;;;;;5077745;28;20433;-89
2021/07/06 04:35:52;;;;;;;3.90;1.60;;;18.80;99.70;;;;;;5067001;28;20025;-88
2021/07/06 04:38:18;;;;;;;2.47;1.38;;;18.80;99.80;;;;;;5097846;28;20023;-89
2021/07/06 04:40:44;;;;;;;2.22;1.45;;;18.80;99.70;;;;;;5082555;28;20477;-90
2021/07/06 04:43:10;;;;;;;3.25;1.60;;;18.80;99.70;;;;;;5083450;28;20028;-89
2021/07/06 04:45:37;;;;;;;7.38;1.85;;;18.80;99.70;;;;;;5062113;28;20035;-89
2021/07/06 04:48:10;;;;;;;2.33;1.42;;;18.80;99.70;;;;;;5062682;28;20063;-91
2021/07/06 04:50:38;;;;;;;3.17;1.67;;;18.90;99.80;;;;;;5082326;28;20091;-91
2021/07/06 04:53:04;;;;;;;2.53;1.50;;;18.80;99.70;;;;;;5084236;28;20020;-89
2021/07/06 04:55:30;;;;;;;3.08;1.52;;;18.90;99.80;;;;;;5082394;28;20040;-89
2021/07/06 04:57:55;;;;;;;4.78;1.40;;;18.90;99.70;;;;;;5096425;28;20024;-90
2021/07/06 05:00:22;;;;;;;5.03;1.67;;;18.90;99.60;;;;;;5047185;28;20069;-89
2021/07/06 05:02:47;;;;;;;3.88;1.40;;;18.90;99.70;;;;;;5051789;28;20046;-89
2021/07/06 05:05:14;;;;;;;2.03;1.40;;;18.90;99.50;;;;;;5075620;28;20488;-88
2021/07/06 05:07:40;;;;;;;2.97;1.40;;;18.90;99.20;;;;;;5075117;28;20493;-90
2021/07/06 05:10:09;;;;;;;2.85;1.50;;;19.00;99.20;;;;;;5082678;28;20040;-88
2021/07/06 05:12:35;;;;;;;3.33;1.40;;;19.10;98.90;;;;;;5098116;28;20047;-90
2021/07/06 05:15:02;;;;;;;3.50;1.50;;;19.20;98.90;;;;;;5094927;28;20040;-89
2021/07/06 05:17:27;;;;;;;4.75;1.35;;;19.20;98.60;;;;;;5079671;28;20017;-89
2021/07/06 05:19:53;;;;;;;4.30;1.30;;;19.30;98.60;;;;;;5084374;28;20492;-91
2021/07/06 05:22:22;;;;;;;4.20;1.42;;;19.30;98.30;;;;;;5067867;28;20028;-90
2021/07/06 05:24:48;;;;;;;3.47;1.52;;;19.40;98.30;;;;;;5076558;28;20035;-89
2021/07/06 05:27:14;;;;;;;4.32;1.35;;;19.40;98.00;;;;;;5092604;28;20024;-90
2021/07/06 05:29:40;;;;;;;4.95;1.38;;;19.50;97.90;;;;;;5102711;28;20039;-90
2021/07/06 05:32:06;;;;;;;2.38;1.25;;;19.60;97.40;;;;;;5063437;28;20028;-89
2021/07/06 05:34:32;;;;;;;4.57;1.50;;;19.60;97.30;;;;;;5081435;28;20563;-88
2021/07/06 05:36:58;;;;;;;3.50;1.35;;;19.70;97.10;;;;;;5101142;28;20106;-90
2021/07/06 05:39:24;;;;;;;7.50;1.50;;;19.70;97.10;;;;;;5070524;28;20082;-90
2021/07/06 05:41:50;;;;;;;4.32;1.20;;;19.70;96.90;;;;;;5070370;28;20070;-92
2021/07/06 05:44:16;;;;;;;3.40;1.30;;;19.80;96.90;;;;;;5062107;28;20485;-90
2021/07/06 05:46:45;;;;;;;5.43;1.45;;;19.80;97.00;;;;;;5080438;28;20019;-88
2021/07/06 05:49:11;;;;;;;5.38;1.52;;;19.80;96.80;;;;;;5080476;28;20425;-90
2021/07/06 05:51:37;;;;;;;2.88;1.50;;;19.80;96.80;;;;;;5063895;28;20119;-90
2021/07/06 05:54:04;;;;;;;3.83;1.42;;;19.80;96.80;;;;;;5065582;28;20046;-90
2021/07/06 05:56:31;;;;;;;3.95;1.40;;;19.90;97.00;;;;;;5063938;28;20035;-91
2021/07/06 05:58:56;;;;;;;3.15;1.30;;;19.90;96.90;;;;;;5059302;28;20060;-90
2021/07/06 06:01:22;;;;;;;4.88;1.48;;;20.00;97.00;;;;;;5059315;28;20039;-90
2021/07/06 06:03:48;;;;;;;3.75;1.60;;;19.90;97.00;;;;;;5043229;28;20424;-90
2021/07/06 06:06:19;;;;;;;4.13;1.65;;;19.90;97.00;;;;;;5059553;28;20033;-88
2021/07/06 06:08:45;;;;;;;5.90;1.92;;;20.00;97.00;;;;;;5066392;28;20365;-88
2021/07/06 06:11:11;;;;;;;2.78;1.52;;;20.00;96.90;;;;;;5050563;28;20042;-88
2021/07/06 06:13:39;;;;;;;3.53;1.38;;;20.00;97.00;;;;;;5057498;28;20052;-88
2021/07/06 06:16:07;;;;;;;3.05;1.40;;;20.10;97.00;;;;;;5077513;28;20109;-88
2021/07/06 06:18:32;;;;;;;3.42;1.77;;;20.10;97.00;;;;;;5076109;28;20410;-88
2021/07/06 06:20:58;;;;;;;3.65;1.45;;;20.10;97.00;;;;;;5077438;28;20111;-88
2021/07/06 06:23:24;;;;;;;3.40;1.42;;;20.10;97.00;;;;;;5077618;28;20411;-88
2021/07/06 06:25:49;;;;;;;4.35;1.50;;;20.10;97.00;;;;;;5044594;28;20473;-88
2021/07/06 06:28:15;;;;;;;3.65;1.60;;;20.10;96.90;;;;;;5060999;28;20029;-88
2021/07/06 06:30:41;;;;;;;4.25;1.75;;;20.10;96.90;;;;;;5039898;28;20450;-89
2021/07/06 06:33:06;;;;;;;4.95;1.80;;;20.10;97.00;;;;;;5086458;28;20028;-88
2021/07/06 06:35:32;;;;;;;2.00;1.20;;;20.10;97.00;;;;;;5060612;28;20105;-89
2021/07/06 06:37:58;;;;;;;2.90;1.42;;;20.00;97.00;;;;;;5060316;28;20030;-89
2021/07/06 06:40:24;;;;;;;3.20;1.48;;;20.10;97.00;;;;;;5091046;28;20036;-89
2021/07/06 06:42:52;;;;;;;4.97;1.40;;;20.10;97.10;;;;;;5040710;28;20089;-88
2021/07/06 06:45:17;;;;;;;4.63;1.38;;;20.10;97.10;;;;;;5079059;28;20032;-88
2021/07/06 06:47:43;;;;;;;3.60;1.30;;;20.10;97.10;;;;;;5076838;28;20025;-88
2021/07/06 06:50:11;;;;;;;2.85;1.45;;;20.10;97.20;;;;;;5070804;28;20430;-89
2021/07/06 06:52:37;;;;;;;3.15;1.60;;;20.10;97.10;;;;;;5044453;28;20035;-88
2021/07/06 06:55:05;;;;;;;3.17;1.50;;;20.10;97.30;;;;;;5086869;28;20365;-88
2021/07/06 06:57:30;;;;;;;4.30;1.90;;;20.10;97.30;;;;;;5059896;28;20036;-88
2021/07/06 06:59:56;;;;;;;4.78;1.40;;;20.10;97.30;;;;;;5068445;28;20043;-88
2021/07/06 07:02:28;;;;;;;3.65;1.33;;;20.10;97.40;;;;;;5056205;28;20036;-88
2021/07/06 07:04:54;;;;;;;3.80;1.70;;;20.10;97.40;;;;;;5056843;28;20190;-88
2021/07/06 07:07:22;;;;;;;4.03;1.70;;;20.10;97.40;;;;;;5061658;28;20540;-90
2021/07/06 07:09:48;;;;;;;3.33;1.60;;;20.20;97.50;;;;;;5067152;28;20035;-89
2021/07/06 07:12:14;;;;;;;4.05;1.77;;;20.20;97.60;;;;;;5055470;28;20115;-88
2021/07/06 07:14:41;;;;;;;4.88;1.70;;;20.20;97.60;;;;;;5047423;28;20246;-88
2021/07/06 07:17:08;;;;;;;3.58;1.70;;;20.20;97.60;;;;;;5051525;28;20036;-88
2021/07/06 07:19:34;;;;;;;3.55;1.38;;;20.20;97.60;;;;;;5069397;28;20028;-89
2021/07/06 07:22:00;;;;;;;3.03;1.48;;;20.20;97.50;;;;;;5074613;28;20377;-88
2021/07/06 07:24:26;;;;;;;4.05;1.58;;;20.20;97.30;;;;;;5074653;28;20032;-88
2021/07/06 07:26:53;;;;;;;4.60;1.67;;;20.20;97.40;;;;;;5074098;28;20035;-88
2021/07/06 07:29:19;;;;;;;3.10;1.33;;;20.30;97.30;;;;;;5064266;28;20071;-88
2021/07/06 07:31:44;;;;;;;3.53;1.73;;;20.20;97.00;;;;;;5076262;28;20052;-88
2021/07/06 07:34:10;;;;;;;2.20;1.23;;;20.20;96.80;;;;;;5065435;28;20500;-89
2021/07/06 07:36:36;;;;;;;3.50;1.30;;;20.20;97.00;;;;;;5041057;28;20087;-88
2021/07/06 07:39:03;;;;;;;4.28;1.45;;;20.30;96.90;;;;;;5038400;28;20057;-88
2021/07/06 07:41:28;;;;;;;2.83;1.23;;;20.30;96.50;;;;;;5099474;28;20031;-89
2021/07/06 07:43:54;;;;;;;2.95;1.20;;;20.30;96.30;;;;;;5037802;28;20108;-86
2021/07/06 07:46:24;;;;;;;3.53;1.50;;;20.30;96.10;;;;;;5080425;28;20036;-87
2021/07/06 07:48:50;;;;;;;3.33;1.20;;;20.30;96.30;;;;;;5057936;28;20055;-86
2021/07/06 07:51:17;;;;;;;2.55;1.27;;;20.30;95.50;;;;;;5081641;28;20123;-85
2021/07/06 07:53:44;;;;;;;4.20;1.23;;;20.30;95.70;;;;;;5056697;28;20020;-85
2021/07/06 07:56:10;;;;;;;1.17;1.00;;;20.40;95.60;;;;;;5084413;28;20024;-85
2021/07/06 07:58:36;;;;;;;3.35;0.82;;;20.30;94.70;;;;;;5091770;28;20484;-87
2021/07/06 08:01:01;;;;;;;2.97;1.23;;;20.40;94.30;;;;;;5067079;28;20107;-86
2021/07/06 08:03:27;;;;;;;1.25;0.73;;;20.40;93.90;;;;;;5068828;28;20039;-86
2021/07/06 08:05:53;;;;;;;4.57;1.05;;;20.40;94.60;;;;;;5052638;28;20490;-85
2021/07/06 08:08:19;;;;;;;3.22;1.08;;;20.40;94.00;;;;;;5094743;28;20036;-85
2021/07/06 08:10:52;;;;;;;2.83;1.13;;;20.40;93.70;;;;;;5057004;28;20385;-85
2021/07/06 08:13:22;;;;;;;0.70;0.70;;;20.40;94.00;;;;;;5090995;28;20369;-84
2021/07/06 08:15:49;;;;;;;2.90;1.20;;;20.40;93.80;;;;;;5080541;28;20039;-87
2021/07/06 08:18:15;;;;;;;3.83;0.90;;;20.40;93.70;;;;;;5074076;28;20035;-85
2021/07/06 08:20:46;;;;;;;1.48;0.90;;;20.40;93.90;;;;;;5063239;28;20023;-89
2021/07/06 08:23:11;;;;;;;2.33;0.90;;;20.40;93.20;;;;;;5057834;28;20024;-88
2021/07/06 08:25:37;;;;;;;2.55;0.77;;;20.50;93.60;;;;;;5058021;28;20034;-88
2021/07/06 08:28:03;;;;;;;1.67;0.85;;;20.40;93.10;;;;;;5075318;28;20082;-87
2021/07/06 08:30:29;;;;;;;3.13;0.88;;;20.50;93.60;;;;;;5057643;28;20085;-88
2021/07/06 08:32:55;;;;;;;3.22;0.90;;;20.50;93.10;;;;;;5074502;28;20027;-89
2021/07/06 08:35:20;;;;;;;1.95;0.90;;;20.50;93.40;;;;;;5057496;28;20122;-88
2021/07/06 08:37:46;;;;;;;3.88;1.17;;;20.50;93.30;;;;;;5074399;28;20034;-88
2021/07/06 08:40:12;;;;;;;3.00;0.90;;;20.60;92.70;;;;;;5074607;28;20039;-86
2021/07/06 08:42:39;;;;;;;2.67;1.00;;;20.60;92.50;;;;;;5074462;28;20016;-87
2021/07/06 08:45:07;;;;;;;5.82;1.00;;;20.70;93.10;;;;;;5058078;28;20513;-87
2021/07/06 08:47:34;;;;;;;2.92;0.80;;;20.80;92.20;;;;;;5078206;28;20120;-86
2021/07/06 08:50:04;;;;;;;2.17;0.85;;;20.80;91.80;;;;;;5057440;28;20029;-88
2021/07/06 08:52:30;;;;;;;1.63;0.70;;;20.80;92.10;;;;;;5074215;28;20461;-87
2021/07/06 08:54:56;;;;;;;2.05;0.93;;;20.80;92.20;;;;;;5075839;28;20074;-87
2021/07/06 08:57:22;;;;;;;3.67;0.90;;;20.70;91.90;;;;;;5080916;28;20118;-86
2021/07/06 08:59:49;;;;;;;1.45;0.75;;;20.70;92.00;;;;;;5058241;28;20029;-88
2021/07/06 09:02:20;;;;;;;5.18;0.95;;;20.70;91.40;;;;;;5074266;28;20493;-88
2021/07/06 09:04:52;;;;;;;5.53;0.90;;;20.70;91.40;;;;;;5078634;28;20051;-87
2021/07/06 09:07:19;;;;;;;3.63;0.70;;;20.80;91.40;;;;;;5078163;28;20034;-88
2021/07/06 09:09:45;;;;;;;4.53;0.90;;;20.80;92.00;;;;;;5077862;28;20389;-83
2021/07/06 09:12:12;;;;;;;4.72;0.98;;;20.90;91.60;;;;;;5093924;28;20017;-83
2021/07/06 09:14:41;;;;;;;3.92;0.80;;;21.00;91.90;;;;;;5058748;28;20086;-85
2021/07/06 09:17:11;;;;;;;4.45;0.98;;;21.10;91.60;;;;;;5080647;28;20112;-84
2021/07/06 09:19:39;;;;;;;2.78;0.88;;;21.20;90.60;;;;;;5080154;28;20099;-85
2021/07/06 09:22:18;;;;;;;1.33;0.80;;;21.20;91.10;;;;;;5085559;28;20028;-87
2021/07/06 09:24:49;;;;;;;2.08;0.80;;;21.30;90.80;;;;;;5057404;28;20390;-88
2021/07/06 09:27:36;;;;;;;2.80;1.10;;;21.30;90.10;;;;;;5078020;28;20032;-88
2021/07/06 09:30:16;;;;;;;1.70;0.82;;;21.30;90.80;;;;;;5082148;28;20032;-87
2021/07/06 09:32:46;;;;;;;3.67;1.50;;;21.40;90.70;;;;;;5077549;28;20020;-87
2021/07/06 09:35:15;;;;;;;2.45;1.25;;;21.40;89.90;;;;;;5069584;28;20048;-86
2021/07/06 09:37:49;;;;;;;6.28;1.00;;;21.50;89.50;;;;;;5077545;28;20035;-88
2021/07/06 09:40:27;;;;;;;3.97;0.90;;;21.50;89.40;;;;;;5089847;28;20028;-88
2021/07/06 09:43:19;;;;;;;2.60;0.82;;;21.60;88.90;;;;;;5091681;28;20028;-88
2021/07/06 09:45:55;;;;;;;3.55;1.10;;;21.70;87.70;;;;;;5075522;28;20046;-88
2021/07/06 09:48:21;;;;;;;5.57;1.00;;;21.60;87.20;;;;;;5077330;28;20649;-88
2021/07/06 09:50:48;;;;;;;4.82;1.10;;;21.60;88.00;;;;;;5071841;28;20028;-88
2021/07/06 09:53:27;;;;;;;3.05;1.10;;;21.60;88.50;;;;;;5058768;28;20503;-87
2021/07/06 09:55:53;;;;;;;2.25;0.95;;;21.50;87.10;;;;;;5077241;28;20020;-89
2021/07/06 09:58:19;;;;;;;2.33;1.08;;;21.50;87.30;;;;;;5076507;28;20012;-89
2021/07/06 10:00:45;;;;;;;3.55;1.10;;;21.40;86.80;;;;;;5077294;28;20152;-89
2021/07/06 10:03:11;;;;;;;2.92;0.95;;;21.40;85.90;;;;;;5058167;28;20039;-88
2021/07/06 10:05:37;;;;;;;4.80;1.15;;;21.30;85.50;;;;;;5052062;28;20431;-90
2021/07/06 10:08:04;;;;;;;3.17;1.10;;;21.20;86.30;;;;;;5057550;28;20127;-89
2021/07/06 10:10:29;;;;;;;2.88;1.08;;;21.20;86.50;;;;;;5057476;28;20039;-86
2021/07/06 10:15:27;;;;;;;1.95;0.90;;;21.30;88.00;;;;;;5123878;28;20028;-91
2021/07/06 10:17:53;;;;;;;3.58;1.42;;;21.30;85.90;;;;;;5111824;28;20016;-91
2021/07/06 10:20:25;;;;;;;3.53;1.10;;;21.40;86.10;;;;;;5067727;28;20540;-89
2021/07/06 10:22:58;;;;;;;3.95;1.17;;;21.50;86.50;;;;;;5074803;28;20136;-90
2021/07/06 10:25:34;;;;;;;3.97;1.10;;;21.50;85.80;;;;;;5071736;28;20880;-90
2021/07/06 10:28:03;;;;;;;3.60;0.85;;;21.60;85.90;;;;;;5083714;28;20024;-92
2021/07/06 10:30:38;;;;;;;6.78;1.30;;;21.70;85.70;;;;;;5092098;28;20027;-91
2021/07/06 10:33:04;;;;;;;3.70;0.90;;;21.70;86.20;;;;;;5087651;28;20028;-91
2021/07/06 10:35:40;;;;;;;4.32;1.15;;;21.80;84.60;;;;;;5093071;28;20360;-92
2021/07/06 10:38:33;;;;;;;4.80;1.20;;;21.90;85.20;;;;;;5083967;28;20488;-91
2021/07/06 10:41:18;;;;;;;1.77;1.10;;;22.00;84.90;;;;;;5074977;28;20032;-89
2021/07/06 10:43:43;;;;;;;3.50;1.10;;;22.10;85.30;;;;;;5094794;28;20024;-90
2021/07/06 10:46:19;;;;;;;8.65;1.20;;;22.10;83.70;;;;;;5078285;28;20035;-91
2021/07/06 10:48:50;;;;;;;4.32;1.17;;;22.10;83.50;;;;;;5077722;28;20028;-89
2021/07/06 10:51:34;;;;;;;4.35;1.17;;;22.10;82.00;;;;;;5078128;28;20135;-89
2021/07/06 10:54:29;;;;;;;3.78;0.88;;;22.00;82.50;;;;;;5073965;28;20031;-84
2021/07/06 10:57:22;;;;;;;5.53;0.88;;;21.90;81.80;;;;;;5091033;28;20441;-82
2021/07/06 10:59:53;;;;;;;4.78;0.88;;;21.80;82.10;;;;;;5072182;28;20040;-82
2021/07/06 11:02:26;;;;;;;7.53;1.40;;;21.80;82.40;;;;;;5056900;28;20036;-84
2021/07/06 11:04:54;;;;;;;8.43;1.40;;;21.80;82.00;;;;;;5093641;28;20020;-82
2021/07/06 11:07:29;;;;;;;3.22;1.30;;;21.70;79.70;;;;;;5072974;28;20035;-82
2021/07/06 11:09:55;;;;;;;4.78;0.80;;;21.70;80.00;;;;;;5060556;28;20028;-84
2021/07/06 11:12:36;;;;;;;2.72;0.95;;;21.70;78.10;;;;;;5088028;28;20097;-82
2021/07/06 11:15:12;;;;;;;3.03;1.05;;;21.80;77.30;;;;;;5064014;28;20093;-82
2021/07/06 11:17:45;;;;;;;8.23;1.20;;;21.90;75.20;;;;;;5073345;28;20024;-82
2021/07/06 11:20:12;;;;;;;6.07;1.00;;;21.90;75.80;;;;;;5073938;28;20024;-83
2021/07/06 11:22:41;;;;;;;11.35;1.52;;;22.00;72.90;;;;;;5080586;28;20064;-82
2021/07/06 11:25:23;;;;;;;5.07;1.15;;;22.00;72.10;;;;;;5060176;28;20478;-81
2021/07/06 11:27:58;;;;;;;7.13;1.30;;;22.10;72.80;;;;;;5075229;28;20056;-80
2021/07/06 11:30:25;;;;;;;12.57;2.15;;;22.20;73.30;;;;;;5061675;28;20458;-81
2021/07/06 11:33:17;;;;;;;7.72;1.67;;;22.20;74.50;;;;;;5093346;28;20024;-82
2021/07/06 11:35:52;;;;;;;7.60;1.58;;;22.30;75.40;;;;;;5066946;28;20111;-82
2021/07/06 11:38:27;;;;;;;9.43;1.30;;;22.30;74.50;;;;;;5056564;28;20125;-82
2021/07/06 11:40:59;;;;;;;4.15;1.30;;;22.40;74.50;;;;;;5066048;28;20027;-81
2021/07/06 11:43:28;;;;;;;7.90;1.27;;;22.40;72.80;;;;;;5070704;28;20114;-81
2021/07/06 11:46:04;;;;;;;2.85;1.10;;;22.50;73.70;;;;;;5074846;28;20023;-82
2021/07/06 11:48:40;;;;;;;5.43;1.10;;;22.60;73.50;;;;;;5060678;28;20081;-81
2021/07/06 11:51:11;;;;;;;3.95;1.02;;;22.60;71.90;;;;;;5065622;28;20024;-81
2021/07/06 11:53:45;;;;;;;6.68;1.40;;;22.70;67.70;;;;;;5068663;28;20107;-83
2021/07/06 11:56:12;;;;;;;5.60;1.10;;;22.60;67.40;;;;;;5044906;28;20489;-89
2021/07/06 11:58:39;;;;;;;6.65;1.17;;;22.60;66.10;;;;;;5050620;28;20024;-90
2021/07/06 12:01:13;;;;;;;11.45;1.20;;;22.50;67.80;;;;;;5062179;28;20024;-91
2021/07/06 12:03:40;;;;;;;4.63;1.00;;;22.40;67.90;;;;;;5053318;28;20032;-90
2021/07/06 12:06:08;;;;;;;12.38;1.80;;;22.40;68.70;;;;;;5073386;28;20035;-90
2021/07/06 12:08:42;;;;;;;6.25;1.00;;;22.30;69.00;;;;;;5066386;28;20055;-91
2021/07/06 12:11:14;;;;;;;2.97;1.08;;;22.30;68.10;;;;;;5066199;28;20020;-87
2021/07/06 12:13:39;;;;;;;7.20;1.50;;;22.30;70.30;;;;;;5067377;28;20101;-93
2021/07/06 12:16:08;;;;;;;4.80;1.08;;;22.40;67.60;;;;;;5068858;28;20016;-89
2021/07/06 12:18:36;;;;;;;4.88;0.93;;;22.40;67.80;;;;;;5051755;28;20029;-90
2021/07/06 12:21:07;;;;;;;6.35;1.17;;;22.40;68.30;;;;;;5077553;28;20035;-88
2021/07/06 12:34:26;;;;;;;4.35;1.23;;;22.40;68.00;;;;;;6197257;22;1293432;-90
2021/07/06 12:42:51;;;;;;;6.15;1.13;;;22.30;68.90;;;;;;6128544;23;20095;-88
2021/07/06 12:45:27;;;;;;;6.07;1.27;;;22.30;68.80;;;;;;6224335;23;20028;-86
2021/07/06 12:47:56;;;;;;;2.85;0.93;;;22.40;68.40;;;;;;6201534;23;20023;-84
2021/07/06 12:50:30;;;;;;;3.33;0.90;;;22.40;70.40;;;;;;6224842;23;20026;-86
2021/07/06 12:53:05;;;;;;;6.70;1.33;;;22.40;67.60;;;;;;6224895;23;20098;-83
2021/07/06 12:55:34;;;;;;;9.02;1.52;;;22.30;67.50;;;;;;6224757;23;20007;-85
2021/07/06 12:58:07;;;;;;;4.85;0.98;;;22.30;67.50;;;;;;6225486;23;20008;-83
2021/07/06 13:00:41;;;;;;;3.60;1.17;;;22.30;69.50;;;;;;6227577;23;20011;-85
2021/07/06 13:03:19;;;;;;;3.95;1.27;;;22.30;70.00;;;;;;6231317;23;20081;-83
2021/07/06 13:05:48;;;;;;;6.65;1.48;;;22.30;68.00;;;;;;6230376;23;20478;-86
2021/07/06 13:08:18;;;;;;;4.88;1.23;;;22.30;67.60;;;;;;6201662;23;20000;-84
2021/07/06 13:10:47;;;;;;;5.43;1.80;;;22.20;67.90;;;;;;6226021;23;19996;-82